sensor_id;sensor_type;location;lat;lon;timestamp;temperature;humidity
1005;DHT22;491;53.480;10.174;2022-09-01T00:02:05;12.60;99.90
1005;DHT22;491;53.480;10.174;2022-09-01T00:04:37;12.50;99.90
1005;DHT22;491;53.480;10.174;2022-09-01T00:07:05;12.40;99.90
1005;DHT22;491;53.480;10.174;2022-09-01T00:09:34;12.40;99.90
1005;DHT22;491;53.480;10.174;2022-09-01T00:12:00;12.50;99.90
1005;DHT22;491;53.480;10.174;2022-09-01T00:14:36;12.50;99.90
1005;DHT22;491;53.480;10.174;2022-09-01T00:17:05;12.40;99.90
1005;DHT22;491;53.480;10.174;2022-09-01T00:19:31;12.40;99.90
1005;DHT22;491;53.480;10.174;2022-09-01T00:21:58;12.40;99.90
1005;DHT22;491;53.480;10.174;2022-09-01T00:24:24;12.20;99.90
1005;DHT22;491;53.480;10.174;2022-09-01T00:26:50;12.20;99.90
1005;DHT22;491;53.480;10.174;2022-09-01T00:29:20;12.20;99.90
1005;DHT22;491;53.480;10.174;2022-09-01T00:31:46;12.20;99.90
1005;DHT22;491;53.480;10.174;2022-09-01T00:34:12;12.20;99.90
1005;DHT22;491;53.480;10.174;2022-09-01T00:36:37;12.20;99.90
1005;DHT22;491;53.480;10.174;2022-09-01T00:39:04;12.20;99.90
1005;DHT22;491;53.480;10.174;2022-09-01T00:41:32;12.10;99.90
1005;DHT22;491;53.480;10.174;2022-09-01T00:44:00;12.10;99.90
1005;DHT22;491;53.480;10.174;2022-09-01T00:46:30;12.10;99.90
1005;DHT22;491;53.480;10.174;2022-09-01T00:49:04;12.10;99.90
1005;DHT22;491;53.480;10.174;2022-09-01T00:51:32;12.00;99.90
1005;DHT22;491;53.480;10.174;2022-09-01T00:53:59;12.00;99.90
1005;DHT22;491;53.480;10.174;2022-09-01T00:56:26;12.00;99.90
1005;DHT22;491;53.480;10.174;2022-09-01T00:58:52;12.00;99.90
1005;DHT22;491;53.480;10.174;2022-09-01T01:01:18;12.00;99.90
1005;DHT22;491;53.480;10.174;2022-09-01T01:03:43;12.00;99.90
1005;DHT22;491;53.480;10.174;2022-09-01T01:06:12;12.00;99.90
1005;DHT22;491;53.480;10.174;2022-09-01T01:08:41;12.00;99.90
1005;DHT22;491;53.480;10.174;2022-09-01T01:11:12;11.90;99.90
1005;DHT22;491;53.480;10.174;2022-09-01T01:16:25;11.90;99.90
1005;DHT22;491;53.480;10.174;2022-09-01T01:18:51;11.90;99.90
1005;DHT22;491;53.480;10.174;2022-09-01T01:21:21;11.90;99.90
1005;DHT22;491;53.480;10.174;2022-09-01T01:24:25;11.80;99.90
1005;DHT22;491;53.480;10.174;2022-09-01T01:26:51;11.90;99.90
1005;DHT22;491;53.480;10.174;2022-09-01T01:29:18;11.80;99.90
1005;DHT22;491;53.480;10.174;2022-09-01T01:31:44;11.80;99.90
1005;DHT22;491;53.480;10.174;2022-09-01T01:34:12;11.80;99.90
1005;DHT22;491;53.480;10.174;2022-09-01T01:36:38;11.80;99.90
1005;DHT22;491;53.480;10.174;2022-09-01T01:39:15;11.90;99.90
1005;DHT22;491;53.480;10.174;2022-09-01T01:41:43;12.00;99.90
1005;DHT22;491;53.480;10.174;2022-09-01T01:44:15;11.90;99.90
1005;DHT22;491;53.480;10.174;2022-09-01T01:46:45;11.80;99.90
1005;DHT22;491;53.480;10.174;2022-09-01T01:49:13;11.80;99.90
1005;DHT22;491;53.480;10.174;2022-09-01T01:51:40;11.70;99.90
1005;DHT22;491;53.480;10.174;2022-09-01T01:54:06;11.70;99.90
1005;DHT22;491;53.480;10.174;2022-09-01T01:56:33;11.70;99.90
1005;DHT22;491;53.480;10.174;2022-09-01T01:59:04;11.60;99.90
1005;DHT22;491;53.480;10.174;2022-09-01T02:01:30;11.60;99.90
1005;DHT22;491;53.480;10.174;2022-09-01T02:03:56;11.60;99.90
1005;DHT22;491;53.480;10.174;2022-09-01T02:06:26;11.50;99.90
1005;DHT22;491;53.480;10.174;2022-09-01T02:09:00;11.50;99.90
1005;DHT22;491;53.480;10.174;2022-09-01T02:11:28;11.50;99.90
1005;DHT22;491;53.480;10.174;2022-09-01T02:13:54;11.50;99.90
1005;DHT22;491;53.480;10.174;2022-09-01T02:16:23;11.40;99.90
1005;DHT22;491;53.480;10.174;2022-09-01T02:18:49;11.50;99.90
1005;DHT22;491;53.480;10.174;2022-09-01T02:21:17;11.60;99.90
1005;DHT22;491;53.480;10.174;2022-09-01T02:23:51;11.60;99.90
1005;DHT22;491;53.480;10.174;2022-09-01T02:26:23;11.60;99.90
1005;DHT22;491;53.480;10.174;2022-09-01T02:28:54;11.70;99.90
1005;DHT22;491;53.480;10.174;2022-09-01T02:31:19;11.70;99.90
1005;DHT22;491;53.480;10.174;2022-09-01T02:33:47;11.80;99.90
1005;DHT22;491;53.480;10.174;2022-09-01T02:36:15;11.60;99.90
1005;DHT22;491;53.480;10.174;2022-09-01T02:38:42;11.50;99.90
1005;DHT22;491;53.480;10.174;2022-09-01T02:41:10;11.40;99.90
1005;DHT22;491;53.480;10.174;2022-09-01T02:43:37;11.50;99.90
1005;DHT22;491;53.480;10.174;2022-09-01T02:46:07;11.40;99.90
1005;DHT22;491;53.480;10.174;2022-09-01T02:48:35;11.40;99.90
1005;DHT22;491;53.480;10.174;2022-09-01T02:51:13;11.50;99.90
1005;DHT22;491;53.480;10.174;2022-09-01T02:53:40;11.50;99.90
1005;DHT22;491;53.480;10.174;2022-09-01T02:56:08;11.60;99.90
1005;DHT22;491;53.480;10.174;2022-09-01T02:58:40;11.60;99.90
1005;DHT22;491;53.480;10.174;2022-09-01T03:01:32;11.60;99.90
1005;DHT22;491;53.480;10.174;2022-09-01T03:04:00;11.70;99.90
1005;DHT22;491;53.480;10.174;2022-09-01T03:06:27;11.70;99.90
1005;DHT22;491;53.480;10.174;2022-09-01T03:08:55;11.60;99.90
1005;DHT22;491;53.480;10.174;2022-09-01T03:11:23;11.60;99.90
1005;DHT22;491;53.480;10.174;2022-09-01T03:13:48;11.70;99.90
1005;DHT22;491;53.480;10.174;2022-09-01T03:16:14;11.70;99.90
1005;DHT22;491;53.480;10.174;2022-09-01T03:18:40;11.70;99.90
1005;DHT22;491;53.480;10.174;2022-09-01T03:21:08;11.60;99.90
1005;DHT22;491;53.480;10.174;2022-09-01T03:23:34;11.70;99.90
1005;DHT22;491;53.480;10.174;2022-09-01T03:26:00;11.70;99.90
1005;DHT22;491;53.480;10.174;2022-09-01T03:28:26;11.70;99.90
1005;DHT22;491;53.480;10.174;2022-09-01T03:30:56;11.70;99.90
1005;DHT22;491;53.480;10.174;2022-09-01T03:33:24;11.70;99.90
1005;DHT22;491;53.480;10.174;2022-09-01T03:35:54;11.70;99.90
1005;DHT22;491;53.480;10.174;2022-09-01T03:38:21;11.70;99.90
1005;DHT22;491;53.480;10.174;2022-09-01T03:40:51;11.60;99.90
1005;DHT22;491;53.480;10.174;2022-09-01T03:43:18;11.60;99.90
1005;DHT22;491;53.480;10.174;2022-09-01T03:45:47;11.60;99.90
1005;DHT22;491;53.480;10.174;2022-09-01T03:48:13;11.50;99.90
1005;DHT22;491;53.480;10.174;2022-09-01T03:50:42;11.50;99.90
1005;DHT22;491;53.480;10.174;2022-09-01T03:53:14;11.50;99.90
1005;DHT22;491;53.480;10.174;2022-09-01T03:55:46;11.40;99.90
1005;DHT22;491;53.480;10.174;2022-09-01T03:58:13;11.40;99.90
1005;DHT22;491;53.480;10.174;2022-09-01T04:00:45;11.30;99.90
1005;DHT22;491;53.480;10.174;2022-09-01T04:03:12;11.30;99.90
1005;DHT22;491;53.480;10.174;2022-09-01T04:05:42;11.30;99.90
1005;DHT22;491;53.480;10.174;2022-09-01T04:08:08;11.20;99.90
1005;DHT22;491;53.480;10.174;2022-09-01T04:10:49;11.20;99.90
1005;DHT22;491;53.480;10.174;2022-09-01T04:15:45;11.10;99.90
1005;DHT22;491;53.480;10.174;2022-09-01T04:18:11;11.10;99.90
1005;DHT22;491;53.480;10.174;2022-09-01T04:20:52;11.00;99.90
1005;DHT22;491;53.480;10.174;2022-09-01T04:23:32;11.00;99.90
1005;DHT22;491;53.480;10.174;2022-09-01T04:26:03;11.00;99.90
1005;DHT22;491;53.480;10.174;2022-09-01T04:28:38;10.90;99.90
1005;DHT22;491;53.480;10.174;2022-09-01T04:31:07;10.90;99.90
1005;DHT22;491;53.480;10.174;2022-09-01T04:33:35;10.90;99.90
1005;DHT22;491;53.480;10.174;2022-09-01T04:36:15;10.90;99.90
1005;DHT22;491;53.480;10.174;2022-09-01T04:38:45;10.90;99.90
1005;DHT22;491;53.480;10.174;2022-09-01T04:41:11;10.90;99.90
1005;DHT22;491;53.480;10.174;2022-09-01T04:43:40;10.90;99.90
1005;DHT22;491;53.480;10.174;2022-09-01T04:46:07;11.00;99.90
1005;DHT22;491;53.480;10.174;2022-09-01T04:48:32;11.00;99.90
1005;DHT22;491;53.480;10.174;2022-09-01T04:50:59;11.00;99.90
1005;DHT22;491;53.480;10.174;2022-09-01T04:53:24;11.00;99.90
1005;DHT22;491;53.480;10.174;2022-09-01T04:55:50;11.00;99.90
1005;DHT22;491;53.480;10.174;2022-09-01T04:58:19;11.00;99.90
1005;DHT22;491;53.480;10.174;2022-09-01T05:00:48;11.00;99.90
1005;DHT22;491;53.480;10.174;2022-09-01T05:03:16;11.00;99.90
1005;DHT22;491;53.480;10.174;2022-09-01T05:05:46;11.00;99.90
1005;DHT22;491;53.480;10.174;2022-09-01T05:08:15;11.10;99.90
1005;DHT22;491;53.480;10.174;2022-09-01T05:10:46;11.10;99.90
1005;DHT22;491;53.480;10.174;2022-09-01T05:13:13;11.10;99.90
1005;DHT22;491;53.480;10.174;2022-09-01T05:15:42;11.10;99.90
1005;DHT22;491;53.480;10.174;2022-09-01T05:18:15;11.30;99.90
1005;DHT22;491;53.480;10.174;2022-09-01T05:20:44;11.30;99.90
1005;DHT22;491;53.480;10.174;2022-09-01T05:23:10;11.30;99.90
1005;DHT22;491;53.480;10.174;2022-09-01T05:25:49;11.40;99.90
1005;DHT22;491;53.480;10.174;2022-09-01T05:28:17;11.50;99.90
1005;DHT22;491;53.480;10.174;2022-09-01T05:30:45;11.70;99.90
1005;DHT22;491;53.480;10.174;2022-09-01T05:33:12;12.50;99.90
1005;DHT22;491;53.480;10.174;2022-09-01T05:35:40;13.60;99.90
1005;DHT22;491;53.480;10.174;2022-09-01T05:38:11;14.10;99.90
1005;DHT22;491;53.480;10.174;2022-09-01T05:40:41;14.80;99.90
1005;DHT22;491;53.480;10.174;2022-09-01T05:43:09;15.10;99.90
1005;DHT22;491;53.480;10.174;2022-09-01T05:45:38;15.60;57.40
1005;DHT22;491;53.480;10.174;2022-09-01T05:48:06;16.00;1.00
1005;DHT22;491;53.480;10.174;2022-09-01T05:50:34;16.60;1.00
1005;DHT22;491;53.480;10.174;2022-09-01T05:53:02;17.20;99.90
1005;DHT22;491;53.480;10.174;2022-09-01T05:55:29;16.70;99.90
1005;DHT22;491;53.480;10.174;2022-09-01T05:57:59;16.30;1.00
1005;DHT22;491;53.480;10.174;2022-09-01T06:00:25;17.00;1.00
1005;DHT22;491;53.480;10.174;2022-09-01T06:02:59;18.40;99.90
1005;DHT22;491;53.480;10.174;2022-09-01T06:05:25;19.60;99.90
1005;DHT22;491;53.480;10.174;2022-09-01T06:07:51;20.50;1.00
1005;DHT22;491;53.480;10.174;2022-09-01T06:10:18;20.90;1.00
1005;DHT22;491;53.480;10.174;2022-09-01T06:12:43;21.20;99.90
1005;DHT22;491;53.480;10.174;2022-09-01T06:15:10;21.30;99.90
1005;DHT22;491;53.480;10.174;2022-09-01T06:17:40;22.10;99.90
1005;DHT22;491;53.480;10.174;2022-09-01T06:20:06;22.50;99.90
1005;DHT22;491;53.480;10.174;2022-09-01T06:22:34;22.70;99.90
1005;DHT22;491;53.480;10.174;2022-09-01T06:25:03;22.90;93.40
1005;DHT22;491;53.480;10.174;2022-09-01T06:27:32;23.30;94.30
1005;DHT22;491;53.480;10.174;2022-09-01T06:30:00;23.20;57.00
1005;DHT22;491;53.480;10.174;2022-09-01T06:32:26;23.60;45.30
1005;DHT22;491;53.480;10.174;2022-09-01T06:34:52;23.80;45.80
1005;DHT22;491;53.480;10.174;2022-09-01T06:37:21;24.10;32.20
1005;DHT22;491;53.480;10.174;2022-09-01T06:39:47;23.90;41.20
1005;DHT22;491;53.480;10.174;2022-09-01T06:42:14;24.50;35.10
1005;DHT22;491;53.480;10.174;2022-09-01T06:44:40;24.70;19.40
1005;DHT22;491;53.480;10.174;2022-09-01T06:47:05;24.90;25.60
1005;DHT22;491;53.480;10.174;2022-09-01T06:49:33;25.10;1.30
1005;DHT22;491;53.480;10.174;2022-09-01T06:52:00;24.70;3.50
1005;DHT22;491;53.480;10.174;2022-09-01T06:54:27;25.20;8.00
1005;DHT22;491;53.480;10.174;2022-09-01T06:56:55;25.60;10.70
1005;DHT22;491;53.480;10.174;2022-09-01T06:59:21;25.70;1.70
1005;DHT22;491;53.480;10.174;2022-09-01T07:01:47;25.50;1.00
1005;DHT22;491;53.480;10.174;2022-09-01T07:04:16;26.20;1.00
1005;DHT22;491;53.480;10.174;2022-09-01T07:06:44;26.10;1.00
1005;DHT22;491;53.480;10.174;2022-09-01T07:09:10;26.80;1.00
1005;DHT22;491;53.480;10.174;2022-09-01T07:11:36;26.60;1.00
1005;DHT22;491;53.480;10.174;2022-09-01T07:14:04;26.90;1.00
1005;DHT22;491;53.480;10.174;2022-09-01T07:16:34;26.30;1.00
1005;DHT22;491;53.480;10.174;2022-09-01T07:19:05;25.70;1.00
1005;DHT22;491;53.480;10.174;2022-09-01T07:21:33;26.10;1.00
1005;DHT22;491;53.480;10.174;2022-09-01T07:23:59;26.50;1.00
1005;DHT22;491;53.480;10.174;2022-09-01T07:26:28;27.40;1.00
1005;DHT22;491;53.480;10.174;2022-09-01T07:28:54;27.50;1.00
1005;DHT22;491;53.480;10.174;2022-09-01T07:31:28;27.60;1.00
1005;DHT22;491;53.480;10.174;2022-09-01T07:33:59;27.40;1.00
1005;DHT22;491;53.480;10.174;2022-09-01T07:36:25;27.70;1.00
1005;DHT22;491;53.480;10.174;2022-09-01T07:38:51;27.50;1.00
1005;DHT22;491;53.480;10.174;2022-09-01T07:41:19;27.70;1.00
1005;DHT22;491;53.480;10.174;2022-09-01T07:43:46;28.40;1.00
1005;DHT22;491;53.480;10.174;2022-09-01T07:46:13;28.20;1.00
1005;DHT22;491;53.480;10.174;2022-09-01T07:48:40;27.10;1.00
1005;DHT22;491;53.480;10.174;2022-09-01T07:51:06;27.70;1.00
1005;DHT22;491;53.480;10.174;2022-09-01T07:53:34;28.00;1.00
1005;DHT22;491;53.480;10.174;2022-09-01T07:56:09;27.90;1.00
1005;DHT22;491;53.480;10.174;2022-09-01T07:58:37;28.00;1.00
1005;DHT22;491;53.480;10.174;2022-09-01T08:01:07;27.40;1.00
1005;DHT22;491;53.480;10.174;2022-09-01T08:03:33;27.30;1.00
1005;DHT22;491;53.480;10.174;2022-09-01T08:06:08;27.00;1.00
1005;DHT22;491;53.480;10.174;2022-09-01T08:08:35;27.90;1.00
1005;DHT22;491;53.480;10.174;2022-09-01T08:11:01;28.10;1.00
1005;DHT22;491;53.480;10.174;2022-09-01T08:13:27;28.10;1.00
1005;DHT22;491;53.480;10.174;2022-09-01T08:15:53;28.60;1.00
1005;DHT22;491;53.480;10.174;2022-09-01T08:18:19;28.80;1.00
1005;DHT22;491;53.480;10.174;2022-09-01T08:20:44;28.60;1.00
1005;DHT22;491;53.480;10.174;2022-09-01T08:23:13;28.20;1.00
1005;DHT22;491;53.480;10.174;2022-09-01T08:25:41;29.20;1.00
1005;DHT22;491;53.480;10.174;2022-09-01T08:28:07;29.30;1.00
1005;DHT22;491;53.480;10.174;2022-09-01T08:30:33;29.40;1.00
1005;DHT22;491;53.480;10.174;2022-09-01T08:33:01;29.20;1.00
1005;DHT22;491;53.480;10.174;2022-09-01T08:35:27;29.40;1.00
1005;DHT22;491;53.480;10.174;2022-09-01T08:37:57;27.70;1.00
1005;DHT22;491;53.480;10.174;2022-09-01T08:40:23;27.80;1.00
1005;DHT22;491;53.480;10.174;2022-09-01T08:47:56;29.50;1.00
1005;DHT22;491;53.480;10.174;2022-09-01T08:50:24;29.80;1.00
1005;DHT22;491;53.480;10.174;2022-09-01T08:55:46;29.30;1.00
1005;DHT22;491;53.480;10.174;2022-09-01T08:58:16;29.70;1.00
1005;DHT22;491;53.480;10.174;2022-09-01T09:00:44;29.30;1.00
1005;DHT22;491;53.480;10.174;2022-09-01T09:06:23;30.50;1.00
1005;DHT22;491;53.480;10.174;2022-09-01T09:08:53;28.80;1.00
1005;DHT22;491;53.480;10.174;2022-09-01T09:14:44;29.90;1.00
1005;DHT22;491;53.480;10.174;2022-09-01T09:17:19;30.30;1.00
1005;DHT22;491;53.480;10.174;2022-09-01T09:19:46;29.10;1.00
1005;DHT22;491;53.480;10.174;2022-09-01T09:22:15;29.90;1.00
1005;DHT22;491;53.480;10.174;2022-09-01T09:24:54;30.50;1.00
1005;DHT22;491;53.480;10.174;2022-09-01T09:27:24;30.60;1.00
1005;DHT22;491;53.480;10.174;2022-09-01T09:29:57;30.70;1.00
1005;DHT22;491;53.480;10.174;2022-09-01T09:32:41;30.70;1.00
1005;DHT22;491;53.480;10.174;2022-09-01T09:35:33;30.50;1.00
1005;DHT22;491;53.480;10.174;2022-09-01T09:43:31;30.60;1.00
1005;DHT22;491;53.480;10.174;2022-09-01T09:49:22;31.50;1.00
1005;DHT22;491;53.480;10.174;2022-09-01T09:51:52;31.30;1.00
1005;DHT22;491;53.480;10.174;2022-09-01T09:54:24;30.80;1.00
1005;DHT22;491;53.480;10.174;2022-09-01T09:59:47;28.80;1.00
1005;DHT22;491;53.480;10.174;2022-09-01T10:05:36;30.00;1.00
1005;DHT22;491;53.480;10.174;2022-09-01T10:08:06;29.30;1.00
1005;DHT22;491;53.480;10.174;2022-09-01T10:10:49;30.50;1.00
1005;DHT22;491;53.480;10.174;2022-09-01T10:13:22;29.30;1.00
1005;DHT22;491;53.480;10.174;2022-09-01T10:15:50;28.80;1.00
1005;DHT22;491;53.480;10.174;2022-09-01T10:18:20;28.30;1.00
1005;DHT22;491;53.480;10.174;2022-09-01T10:21:02;27.60;1.00
1005;DHT22;491;53.480;10.174;2022-09-01T10:23:33;26.00;1.00
1005;DHT22;491;53.480;10.174;2022-09-01T10:26:10;27.70;1.00
1005;DHT22;491;53.480;10.174;2022-09-01T10:28:47;29.40;1.00
1005;DHT22;491;53.480;10.174;2022-09-01T10:31:15;30.40;1.00
1005;DHT22;491;53.480;10.174;2022-09-01T10:33:41;29.30;1.00
1005;DHT22;491;53.480;10.174;2022-09-01T10:36:07;27.00;1.00
1005;DHT22;491;53.480;10.174;2022-09-01T10:38:33;26.10;1.00
1005;DHT22;491;53.480;10.174;2022-09-01T10:40:59;28.30;1.00
1005;DHT22;491;53.480;10.174;2022-09-01T10:43:40;29.10;1.00
1005;DHT22;491;53.480;10.174;2022-09-01T10:46:42;30.30;1.00
1005;DHT22;491;53.480;10.174;2022-09-01T10:51:58;30.40;1.00
1005;DHT22;491;53.480;10.174;2022-09-01T10:59:43;31.40;1.00
1005;DHT22;491;53.480;10.174;2022-09-01T11:07:28;31.60;1.00
1005;DHT22;491;53.480;10.174;2022-09-01T11:10:32;31.20;1.00
1005;DHT22;491;53.480;10.174;2022-09-01T11:16:24;29.70;1.00
1005;DHT22;491;53.480;10.174;2022-09-01T11:18:53;30.20;1.00
1005;DHT22;491;53.480;10.174;2022-09-01T11:21:27;30.40;1.00
1005;DHT22;491;53.480;10.174;2022-09-01T11:30:08;28.60;1.00
1005;DHT22;491;53.480;10.174;2022-09-01T11:32:36;27.20;1.00
1005;DHT22;491;53.480;10.174;2022-09-01T11:35:05;26.40;1.00
1005;DHT22;491;53.480;10.174;2022-09-01T11:37:39;25.70;1.00
1005;DHT22;491;53.480;10.174;2022-09-01T11:40:05;25.40;1.00
1005;DHT22;491;53.480;10.174;2022-09-01T11:42:40;25.10;1.00
1005;DHT22;491;53.480;10.174;2022-09-01T11:45:24;24.50;1.00
1005;DHT22;491;53.480;10.174;2022-09-01T11:48:22;24.60;1.00
1005;DHT22;491;53.480;10.174;2022-09-01T11:50:58;24.70;1.00
1005;DHT22;491;53.480;10.174;2022-09-01T11:53:32;24.80;1.00
1005;DHT22;491;53.480;10.174;2022-09-01T11:56:19;24.90;1.00
1005;DHT22;491;53.480;10.174;2022-09-01T11:58:50;24.80;1.00
1005;DHT22;491;53.480;10.174;2022-09-01T12:01:19;23.80;1.00
1005;DHT22;491;53.480;10.174;2022-09-01T12:03:46;23.60;1.00
1005;DHT22;491;53.480;10.174;2022-09-01T12:06:20;23.20;1.00
1005;DHT22;491;53.480;10.174;2022-09-01T12:09:02;23.10;1.00
1005;DHT22;491;53.480;10.174;2022-09-01T12:11:31;25.60;1.00
1005;DHT22;491;53.480;10.174;2022-09-01T12:17:01;28.10;1.00
1005;DHT22;491;53.480;10.174;2022-09-01T12:19:30;29.10;1.00
1005;DHT22;491;53.480;10.174;2022-09-01T12:22:03;28.80;1.00
1005;DHT22;491;53.480;10.174;2022-09-01T12:24:33;28.80;1.00
1005;DHT22;491;53.480;10.174;2022-09-01T12:27:00;28.40;1.00
1005;DHT22;491;53.480;10.174;2022-09-01T12:29:33;28.90;1.00
1005;DHT22;491;53.480;10.174;2022-09-01T12:32:07;29.40;1.00
1005;DHT22;491;53.480;10.174;2022-09-01T12:34:42;28.70;1.00
1005;DHT22;491;53.480;10.174;2022-09-01T12:40:34;25.40;1.00
1005;DHT22;491;53.480;10.174;2022-09-01T12:43:00;24.80;1.00
1005;DHT22;491;53.480;10.174;2022-09-01T12:46:00;24.40;1.00
1005;DHT22;491;53.480;10.174;2022-09-01T12:48:40;24.40;1.00
1005;DHT22;491;53.480;10.174;2022-09-01T12:53:48;24.20;1.00
1005;DHT22;491;53.480;10.174;2022-09-01T12:56:18;24.50;1.00
1005;DHT22;491;53.480;10.174;2022-09-01T12:58:47;24.90;1.00
1005;DHT22;491;53.480;10.174;2022-09-01T13:01:25;25.10;1.00
1005;DHT22;491;53.480;10.174;2022-09-01T13:04:10;24.60;1.00
1005;DHT22;491;53.480;10.174;2022-09-01T13:06:37;24.80;1.00
1005;DHT22;491;53.480;10.174;2022-09-01T13:09:03;25.50;1.00
1005;DHT22;491;53.480;10.174;2022-09-01T13:11:28;26.30;1.00
1005;DHT22;491;53.480;10.174;2022-09-01T13:13:54;25.90;1.00
1005;DHT22;491;53.480;10.174;2022-09-01T13:16:19;25.80;1.00
1005;DHT22;491;53.480;10.174;2022-09-01T13:21:37;25.80;1.00
1005;DHT22;491;53.480;10.174;2022-09-01T13:24:04;26.10;1.00
1005;DHT22;491;53.480;10.174;2022-09-01T13:26:32;26.60;1.00
1005;DHT22;491;53.480;10.174;2022-09-01T13:28:58;27.20;1.00
1005;DHT22;491;53.480;10.174;2022-09-01T13:31:25;27.50;1.00
1005;DHT22;491;53.480;10.174;2022-09-01T13:33:50;27.50;1.00
1005;DHT22;491;53.480;10.174;2022-09-01T13:36:16;26.90;1.00
1005;DHT22;491;53.480;10.174;2022-09-01T13:38:42;26.40;1.00
1005;DHT22;491;53.480;10.174;2022-09-01T13:41:07;26.10;1.00
1005;DHT22;491;53.480;10.174;2022-09-01T13:43:35;25.50;1.00
1005;DHT22;491;53.480;10.174;2022-09-01T13:46:01;25.20;1.00
1005;DHT22;491;53.480;10.174;2022-09-01T13:48:26;25.00;1.00
1005;DHT22;491;53.480;10.174;2022-09-01T13:50:53;25.20;1.00
1005;DHT22;491;53.480;10.174;2022-09-01T13:53:20;24.90;1.00
1005;DHT22;491;53.480;10.174;2022-09-01T13:55:46;24.30;1.00
1005;DHT22;491;53.480;10.174;2022-09-01T13:58:12;24.30;1.00
1005;DHT22;491;53.480;10.174;2022-09-01T14:00:45;23.80;1.00
1005;DHT22;491;53.480;10.174;2022-09-01T14:03:15;23.40;1.00
1005;DHT22;491;53.480;10.174;2022-09-01T14:05:44;23.30;1.00
1005;DHT22;491;53.480;10.174;2022-09-01T14:08:11;23.20;1.00
1005;DHT22;491;53.480;10.174;2022-09-01T14:10:40;23.60;1.00
1005;DHT22;491;53.480;10.174;2022-09-01T14:13:07;24.00;1.00
1005;DHT22;491;53.480;10.174;2022-09-01T14:15:33;24.40;1.00
1005;DHT22;491;53.480;10.174;2022-09-01T14:17:59;24.30;1.00
1005;DHT22;491;53.480;10.174;2022-09-01T14:20:28;24.10;1.00
1005;DHT22;491;53.480;10.174;2022-09-01T14:22:56;24.30;1.00
1005;DHT22;491;53.480;10.174;2022-09-01T14:25:22;24.20;1.00
1005;DHT22;491;53.480;10.174;2022-09-01T14:27:48;24.40;1.00
1005;DHT22;491;53.480;10.174;2022-09-01T14:30:20;25.00;1.00
1005;DHT22;491;53.480;10.174;2022-09-01T14:32:48;24.80;1.00
1005;DHT22;491;53.480;10.174;2022-09-01T14:35:15;24.90;1.00
1005;DHT22;491;53.480;10.174;2022-09-01T14:37:41;24.50;1.00
1005;DHT22;491;53.480;10.174;2022-09-01T14:40:09;24.90;1.00
1005;DHT22;491;53.480;10.174;2022-09-01T14:42:35;24.20;1.00
1005;DHT22;491;53.480;10.174;2022-09-01T14:45:05;24.00;1.00
1005;DHT22;491;53.480;10.174;2022-09-01T14:47:30;23.50;1.00
1005;DHT22;491;53.480;10.174;2022-09-01T14:49:56;23.20;1.00
1005;DHT22;491;53.480;10.174;2022-09-01T14:52:22;23.00;1.00
1005;DHT22;491;53.480;10.174;2022-09-01T14:54:47;22.70;1.00
1005;DHT22;491;53.480;10.174;2022-09-01T14:57:13;22.60;1.00
1005;DHT22;491;53.480;10.174;2022-09-01T14:59:39;22.60;1.00
1005;DHT22;491;53.480;10.174;2022-09-01T15:02:06;22.40;1.00
1005;DHT22;491;53.480;10.174;2022-09-01T15:04:35;22.20;1.00
1005;DHT22;491;53.480;10.174;2022-09-01T15:07:01;22.00;1.00
1005;DHT22;491;53.480;10.174;2022-09-01T15:09:29;21.90;1.00
1005;DHT22;491;53.480;10.174;2022-09-01T15:11:54;21.80;1.00
1005;DHT22;491;53.480;10.174;2022-09-01T15:14:21;21.70;1.00
1005;DHT22;491;53.480;10.174;2022-09-01T15:16:47;21.60;1.00
1005;DHT22;491;53.480;10.174;2022-09-01T15:19:13;21.50;1.00
1005;DHT22;491;53.480;10.174;2022-09-01T15:21:41;21.60;1.00
1005;DHT22;491;53.480;10.174;2022-09-01T15:24:10;21.80;1.00
1005;DHT22;491;53.480;10.174;2022-09-01T15:26:35;21.90;1.00
1005;DHT22;491;53.480;10.174;2022-09-01T15:29:03;22.10;1.00
1005;DHT22;491;53.480;10.174;2022-09-01T15:31:29;22.10;1.00
1005;DHT22;491;53.480;10.174;2022-09-01T15:33:59;22.20;1.00
1005;DHT22;491;53.480;10.174;2022-09-01T15:36:26;22.30;1.00
1005;DHT22;491;53.480;10.174;2022-09-01T15:38:53;22.30;1.00
1005;DHT22;491;53.480;10.174;2022-09-01T15:41:27;22.20;1.00
1005;DHT22;491;53.480;10.174;2022-09-01T15:43:54;22.10;1.00
1005;DHT22;491;53.480;10.174;2022-09-01T15:46:20;21.90;1.00
1005;DHT22;491;53.480;10.174;2022-09-01T15:48:46;22.00;1.00
1005;DHT22;491;53.480;10.174;2022-09-01T15:51:31;21.90;1.00
1005;DHT22;491;53.480;10.174;2022-09-01T15:54:04;21.90;1.00
1005;DHT22;491;53.480;10.174;2022-09-01T15:56:30;21.90;1.00
1005;DHT22;491;53.480;10.174;2022-09-01T15:58:56;21.90;1.00
1005;DHT22;491;53.480;10.174;2022-09-01T16:01:23;22.10;1.00
1005;DHT22;491;53.480;10.174;2022-09-01T16:03:49;22.10;1.00
1005;DHT22;491;53.480;10.174;2022-09-01T16:06:14;22.00;1.00
1005;DHT22;491;53.480;10.174;2022-09-01T16:08:41;21.80;1.00
1005;DHT22;491;53.480;10.174;2022-09-01T16:11:08;21.70;1.00
1005;DHT22;491;53.480;10.174;2022-09-01T16:13:35;21.60;1.00
1005;DHT22;491;53.480;10.174;2022-09-01T16:19:48;21.40;1.00
1005;DHT22;491;53.480;10.174;2022-09-01T16:22:26;21.40;1.00
1005;DHT22;491;53.480;10.174;2022-09-01T16:24:54;21.20;1.00
1005;DHT22;491;53.480;10.174;2022-09-01T16:27:28;21.20;1.00
1005;DHT22;491;53.480;10.174;2022-09-01T16:30:00;21.20;1.00
1005;DHT22;491;53.480;10.174;2022-09-01T16:32:27;21.10;1.00
1005;DHT22;491;53.480;10.174;2022-09-01T16:34:53;21.00;1.00
1005;DHT22;491;53.480;10.174;2022-09-01T16:37:36;21.00;1.00
1005;DHT22;491;53.480;10.174;2022-09-01T16:40:31;21.00;1.00
1005;DHT22;491;53.480;10.174;2022-09-01T16:43:08;21.10;1.00
1005;DHT22;491;53.480;10.174;2022-09-01T16:45:53;21.00;1.00
1005;DHT22;491;53.480;10.174;2022-09-01T16:48:39;21.00;1.00
1005;DHT22;491;53.480;10.174;2022-09-01T16:51:30;20.80;1.00
1005;DHT22;491;53.480;10.174;2022-09-01T16:54:11;20.80;1.00
1005;DHT22;491;53.480;10.174;2022-09-01T16:56:53;20.70;1.00
1005;DHT22;491;53.480;10.174;2022-09-01T16:59:31;20.60;1.00
1005;DHT22;491;53.480;10.174;2022-09-01T17:04:53;20.50;1.00
1005;DHT22;491;53.480;10.174;2022-09-01T17:07:44;20.30;1.00
1005;DHT22;491;53.480;10.174;2022-09-01T17:10:40;20.20;1.00
1005;DHT22;491;53.480;10.174;2022-09-01T17:13:20;20.20;1.00
1005;DHT22;491;53.480;10.174;2022-09-01T17:15:52;20.00;1.00
1005;DHT22;491;53.480;10.174;2022-09-01T17:18:38;20.10;1.00
1005;DHT22;491;53.480;10.174;2022-09-01T17:21:15;20.30;1.00
1005;DHT22;491;53.480;10.174;2022-09-01T17:23:52;20.30;99.90
1005;DHT22;491;53.480;10.174;2022-09-01T17:26:29;20.00;1.00
1005;DHT22;491;53.480;10.174;2022-09-01T17:29:04;19.80;1.00
1005;DHT22;491;53.480;10.174;2022-09-01T17:31:45;19.60;1.00
1005;DHT22;491;53.480;10.174;2022-09-01T17:49:17;19.00;1.00
1005;DHT22;491;53.480;10.174;2022-09-01T17:51:54;18.80;1.00
1005;DHT22;491;53.480;10.174;2022-09-01T17:57:21;18.70;35.70
1005;DHT22;491;53.480;10.174;2022-09-01T18:00:04;18.60;79.90
1005;DHT22;491;53.480;10.174;2022-09-01T18:02:57;18.50;81.00
1005;DHT22;491;53.480;10.174;2022-09-01T18:05:28;18.50;58.30